Portada
METAR-TAF:

METAR-TAF

Aeropuertos :

Chlef, Argelia

latitud: 36-13N, longitud: 001-20E, altitud: 143 m

Observación

El informe se hizo hace 28 minutos, a las 07:00 UTC
Viento calma
Temperatura 27°C
Humedad 62%
Presión 1013 hPa
Visibilidad 10 km o más
Escasas nubes a una altura de 2600 ft

METAR: DAOI 140700Z 00000KT 9999 FEW026 27/19 Q1013

Hora: 08:28 (07:28 UTC)

Pronóstico

El informe se hizo hace 2 horas y 28 minutos, a las 05:00 UTC
Pronóstico válido del 14 a las 06 UTC al 15 a las 06 UTC
Viento 2 kt con dirección variable
Visibilidad 10 km o más
Escasas nubes a una altura de 2600 ft
Evolucionando progresivamente
del 14 a las 12 UTC al 14 a las 14 UTC
Viento 10 kt del noreste

TAF: DAOI 140500Z 1406/1506 VRB02KT 9999 FEW026 BECMG 1412/1414 04010KT

Observaciones y pronósticos meteorológicos de más de 4000 aeropuertos (mensajes METAR y TAF).

Los puntos amarillos y rojos representan las estaciones disponibles.

Ponga el ratón en el punto deseado para ver el nombre de la estación.

Haga clic para ver las observaciones y los pronósticos meteorológicos.

Para cambiar el mapa : haga clic en los botones verdes con una cruz de color negro para hacer un zoom, en el botón verde con un guión para alejar o en las flechas verdes para mapas adyacentes.


METAR-TAF: